MST,Max TemperatureF,Mean TemperatureF,Min TemperatureF,Max Dew PointF,MeanDew PointF,Min DewpointF,Max Humidity, Mean Humidity, Min Humidity, Max Sea Level PressureIn, Mean Sea Level PressureIn, Min Sea Level PressureIn, Max VisibilityMiles, Mean VisibilityMiles, Min VisibilityMiles, Max Wind SpeedMPH, Mean Wind SpeedMPH, Max Gust SpeedMPH,PrecipitationIn, CloudCover, Events, WindDirDegrees
2012-11-1,71,51,31,37,33,28,89,57,24,30.08,29.97,29.85,10,10,10,16,7,20,0.00,0,,166
2012-11-2,59,46,32,38,35,30,92,64,36,30.19,29.99,29.81,10,10,10,30,10,39,0.00,0,,339
2012-11-3,65,46,27,37,30,25,92,59,25,30.28,30.19,30.11,10,10,10,15,6,18,0.00,1,,222
2012-11-4,67,49,31,36,29,23,78,49,19,30.21,30.13,30.04,10,10,10,23,11,29,0.00,1,,312
2012-11-5,60,45,30,34,33,28,92,63,33,30.26,30.15,30.04,10,10,10,15,6,18,0.00,1,,304
2012-11-6,65,47,29,37,32,24,76,52,28,30.25,30.18,30.05,10,10,10,20,10,24,0.00,0,,326
2012-11-7,74,50,26,35,31,23,92,58,23,30.17,30.01,29.85,10,10,10,17,7,21,0.00,0,,186
2012-11-8,63,46,29,34,31,27,85,60,34,29.95,29.89,29.84,10,10,10,23,10,29,0.00,0,,37
2012-11-9,58,43,27,37,32,25,100,74,47,29.88,29.75,29.59,10,5,0,17,8,21,0.00,4,Fog,78
2012-11-10,43,33,23,38,30,16,100,85,70,29.96,29.64,29.48,10,6,0,35,13,43,T,8,Fog-Snow,6
2012-11-11,33,23,12,15,10,8,80,58,35,30.34,30.15,29.94,10,10,10,23,10,31,0.00,2,,316
2012-11-12,47,29,11,12,9,7,84,52,19,30.44,30.39,30.34,10,10,10,22,9,31,0.00,0,,283
2012-11-13,57,38,18,25,16,6,88,52,16,30.37,30.30,30.21,10,10,10,12,5,16,0.00,0,,356
2012-11-14,60,39,17,27,21,16,84,53,21,30.36,30.24,30.14,10,10,7,21,6,24,0.00,0,,257
2012-11-15,56,40,24,32,24,19,81,54,26,30.45,30.36,30.17,10,10,10,18,7,22,0.00,1,,16
2012-11-16,59,42,24,32,27,20,88,58,28,30.42,30.27,30.11,10,10,10,24,11,30,0.00,0,,176
2012-11-17,68,46,23,32,28,24,100,61,22,30.14,30.09,30.03,10,8,0,12,5,15,0.00,1,Fog,2
2012-11-18,58,42,26,36,29,22,89,65,40,30.05,30.01,29.93,10,10,10,10,4,13,0.00,0,,255
2012-11-19,67,51,35,34,30,27,70,48,26,30.23,30.16,30.04,10,10,10,18,8,23,0.00,1,,311
2012-11-20,72,49,25,29,23,19,81,48,15,30.28,30.17,30.06,10,10,9,20,7,25,0.00,0,,229
2012-11-21,70,48,25,25,21,16,68,43,17,30.06,29.92,29.79,10,10,9,12,5,31,0.00,0,,257
2012-11-22,56,42,28,33,19,5,59,37,14,30.50,30.15,29.79,10,10,10,32,15,40,0.00,0,,324
2012-11-23,49,34,19,17,14,12,73,48,23,30.64,30.49,30.25,10,10,10,15,7,20,0.00,0,,265
2012-11-24,74,48,21,22,16,13,69,40,10,30.22,30.00,29.85,10,10,10,24,8,32,0.00,0,,281
2012-11-25,53,37,20,29,22,15,84,63,41,30.11,30.00,29.91,10,10,10,17,7,23,0.00,0,,112
2012-11-26,36,29,21,25,22,15,84,73,61,30.48,30.37,30.14,10,10,9,15,6,17,0.00,6,,48
2012-11-27,60,39,17,25,17,13,84,51,17,30.37,30.27,30.14,10,10,10,16,6,20,0.00,0,,284
2012-11-28,54,34,14,26,20,10,88,60,32,30.37,30.22,30.06,10,10,7,16,6,20,0.00,0,,197
2012-11-29,71,45,18,20,14,7,73,41,8,30.08,30.02,29.91,10,10,5,15,6,21,0.00,0,,282
2012-11-30,59,41,23,25,21,17,74,49,23,30.12,29.99,29.82,10,10,9,14,5,17,0.00,0,,189